Terminal Aerodrome Forecast
Issued by NWS

Home | Current Version | Previous Version | Text Only | Print | Product List | Glossary On
Versions: 1 2 3 4 5 6 7 8 9 10 11 12 13 14 15
000
FTUS41 KBTV 282336
TAFRUT
TAF
KRUT 282336Z 2900/2924 24004KT P6SM SCT070
     FM290500 17004KT P6SM SCT250
     FM290900 16004KT P6SM BKN110
     FM291300 20004KT P6SM VCSH BKN090
     FM291800 15006KT P6SM +SHRA OVC070=

USA.gov is the U.S. government's official web portal to all federal, state and local government web resources and services.